createdAt,value
2018-12-03T16:14:51.402Z,20.46
2018-12-03T16:18:13.370Z,20.69
2018-12-03T16:21:35.406Z,20.6
2018-12-03T16:24:57.418Z,20.58
2018-12-03T16:28:19.303Z,20.58
2018-12-03T16:31:41.348Z,20.53
2018-12-03T16:35:03.301Z,20.08
2018-12-03T16:38:25.337Z,20.39
2018-12-03T16:41:47.258Z,20.63
2018-12-03T16:45:12.916Z,20.58
2018-12-03T16:48:31.328Z,20.39
2018-12-03T16:51:53.281Z,20.43
2018-12-03T16:55:15.355Z,20.56
2018-12-03T16:58:37.242Z,20.5
2018-12-03T17:01:59.249Z,20.53
2018-12-03T17:05:21.330Z,20.47
2018-12-03T17:08:44.791Z,20.41
2018-12-03T17:12:05.133Z,20.32
2018-12-03T17:15:27.146Z,20.33
2018-12-03T17:18:49.059Z,20.36
2018-12-03T17:22:11.089Z,20.31
2018-12-03T17:25:32.880Z,20.31
2018-12-03T17:28:54.922Z,20.32
2018-12-03T17:32:16.858Z,20.26
2018-12-03T17:35:38.809Z,20.24
2018-12-03T17:39:00.713Z,20.21
2018-12-03T17:42:22.747Z,20.18
2018-12-03T17:45:44.664Z,20.16
2018-12-03T17:49:06.670Z,20.14
2018-12-03T17:52:28.564Z,20.06
2018-12-03T17:55:50.604Z,20.17
2018-12-03T17:59:12.498Z,20.05
2018-12-03T18:02:34.486Z,20.08
2018-12-03T18:05:56.462Z,20.1
2018-12-03T18:09:18.528Z,20.05
2018-12-03T18:12:40.458Z,20.03
2018-12-03T18:16:02.434Z,20.05
2018-12-03T18:19:24.518Z,20.05
2018-12-03T18:22:46.451Z,19.95
2018-12-03T18:26:08.456Z,19.98
2018-12-03T18:29:30.559Z,19.96
2018-12-03T18:32:52.481Z,19.94
2018-12-03T18:36:14.563Z,19.94
2018-12-03T18:39:36.566Z,19.92
2018-12-03T18:42:58.520Z,19.92
2018-12-03T18:46:20.525Z,19.81
2018-12-03T18:49:42.623Z,19.92
2018-12-03T18:53:04.546Z,19.86
2018-12-03T18:56:26.544Z,19.84
2018-12-03T18:59:48.531Z,19.81
2018-12-03T19:03:10.567Z,19.77
2018-12-03T19:06:32.612Z,19.78
2018-12-03T19:09:54.624Z,19.83
2018-12-03T19:13:16.549Z,19.77
2018-12-03T19:16:38.686Z,19.78
2018-12-03T19:20:00.601Z,19.73
2018-12-03T19:23:22.495Z,19.72
2018-12-03T19:26:44.575Z,19.72
2018-12-03T19:30:06.542Z,19.72
2018-12-03T19:33:28.436Z,19.61
2018-12-03T19:36:50.500Z,19.67
2018-12-03T19:40:12.442Z,19.6
2018-12-03T19:43:34.410Z,19.65
2018-12-03T19:46:56.511Z,19.65
2018-12-03T19:50:18.471Z,19.64
2018-12-03T19:53:40.490Z,19.61
2018-12-03T19:57:02.481Z,19.64
2018-12-03T20:00:24.460Z,19.6
2018-12-03T20:03:46.383Z,19.58
2018-12-03T20:07:08.388Z,19.6
2018-12-03T20:10:30.384Z,19.58
2018-12-03T20:14:48.387Z,19.7
2018-12-03T20:18:10.347Z,19.76
2018-12-03T20:21:32.307Z,19.81
2018-12-03T20:24:54.326Z,19.83
2018-12-03T20:28:16.298Z,19.84
2018-12-03T20:31:38.278Z,20.02
2018-12-03T20:35:00.227Z,20.01
2018-12-03T20:38:22.139Z,19.98
2018-12-03T20:41:44.029Z,20.01
2018-12-03T20:45:06.086Z,20.06
2018-12-03T20:48:27.909Z,20.03
2018-12-03T20:51:49.881Z,20.08
2018-12-03T20:55:11.968Z,20.11
2018-12-03T20:58:33.792Z,20.16
2018-12-03T21:01:55.750Z,20.17
2018-12-03T21:05:17.665Z,20.18
2018-12-03T21:08:39.672Z,20.16
2018-12-03T21:12:01.609Z,20.17
2018-12-03T21:15:23.536Z,20.18
2018-12-03T21:18:45.467Z,20.18
2018-12-03T21:22:07.324Z,20.21
2018-12-03T21:35:35.200Z,20.29
2018-12-03T21:38:57.127Z,20.26
2018-12-03T21:42:18.947Z,20.24
2018-12-03T21:49:02.805Z,20.31
2018-12-03T21:52:24.818Z,20.24
2018-12-03T21:55:46.637Z,20.33
2018-12-03T21:59:08.656Z,20.31
2018-12-03T22:02:30.598Z,20.26
2018-12-03T22:05:52.424Z,20.32
2018-12-03T22:09:14.429Z,20.23
2018-12-03T22:12:36.282Z,20.29
2018-12-03T22:15:58.279Z,20.35
2018-12-03T22:19:20.178Z,20.32
2018-12-03T22:22:42.121Z,20.29
2018-12-03T22:26:04.054Z,20.24
2018-12-03T22:29:25.981Z,20.28
2018-12-03T22:32:47.933Z,20.29
2018-12-03T22:36:10.019Z,20.31
2018-12-03T22:39:31.874Z,20.16
2018-12-03T22:42:53.748Z,20.1
2018-12-03T22:46:15.778Z,20.1
2018-12-03T22:49:37.711Z,20.05
2018-12-03T22:52:59.671Z,20.01
2018-12-03T22:56:21.529Z,19.98
2018-12-03T22:59:43.550Z,19.91
2018-12-03T23:03:05.408Z,19.86
2018-12-03T23:06:27.402Z,19.86
2018-12-03T23:09:49.297Z,19.84
2018-12-03T23:13:11.238Z,19.83
2018-12-03T23:16:34.051Z,19.84
2018-12-03T23:19:55.203Z,19.76
2018-12-03T23:23:17.102Z,19.76
2018-12-03T23:26:39.043Z,19.72
2018-12-03T23:30:00.966Z,19.72
2018-12-03T23:33:23.058Z,19.67
2018-12-03T23:36:44.982Z,19.65
2018-12-03T23:40:06.974Z,19.64
2018-12-03T23:43:28.799Z,19.62
2018-12-03T23:46:50.811Z,19.62
2018-12-03T23:50:12.661Z,19.62
2018-12-03T23:53:34.609Z,19.58
2018-12-03T23:56:56.545Z,19.55
